»·PEaware :: N256Z KBOI-KPIH

N256Z :: KBOI-KPIH

FLIGHT INFORMATION

Flight Status: Arrived
Operator: Privately registered:
United States
More flights under this callsign
Pilot: Gregory A. (9731)
Aircraft: PIPER PA-46-310/350P MALIBU MIRAGE
(PA46)
More flights by this aircraft type
Origin: KBOI Boise Air Terminal/Gowen
United States
Destination: KPIH Pocatello Regl
United States
More flights between these airports :: More routes between these airports
Route: +BOI3 BOI J54 PIH
File this flight plan on PilotEdge
Remarks:
Altitude:
(Current/Filed)
190ft
Speed:
(Current/Filed)
250kts
Departed: 14-Jul-18 09:41 AM
Arrived: 14-Jul-18 10:38 AM
Distance/Time
Traveled:
164nm/0:57
Distance/Time
To Go:
Arrived

Flight Plot

Page will automatically refresh every two minutes.

Flight plan parsing failed; only flown route is shown


Map Options




Map Legend


Flown Route
Filed Route
Departure Airport
Arrival Airport
Navaid (VOR, NDB)
Fix

Horizontal Profiles

Position Reports

Time Latitude Longitude Heading Altitude Ground
Speed
14-Jul-18 09:21 43.563825 -116.237844 169 2838ft 0kts
14-Jul-18 09:22 43.563825 -116.237844 169 2838ft 0kts
14-Jul-18 09:23 43.563825 -116.237844 169 2838ft 0kts
14-Jul-18 09:24 43.563825 -116.237844 169 2838ft 0kts
14-Jul-18 09:25 43.563825 -116.237844 169 2838ft 0kts
14-Jul-18 09:26 43.563825 -116.237844 169 2838ft 0kts
14-Jul-18 09:27 43.563825 -116.237844 169 2838ft 0kts
14-Jul-18 09:28 43.563825 -116.237844 169 2838ft 0kts
14-Jul-18 09:29 43.563825 -116.237844 169 2838ft 0kts
14-Jul-18 09:30 43.563825 -116.237844 169 2838ft 0kts
14-Jul-18 09:31 43.563825 -116.237844 169 2838ft 0kts
14-Jul-18 09:32 43.563825 -116.237844 169 2838ft 0kts
14-Jul-18 09:33 43.563825 -116.237844 169 2838ft 0kts
14-Jul-18 09:34 43.564072 -116.237349 358 2838ft 9kts
14-Jul-18 09:35 43.564817 -116.234787 85 2838ft 0kts
14-Jul-18 09:36 43.564954 -116.231949 115 2838ft 23kts
14-Jul-18 09:37 43.561887 -116.222881 113 2838ft 25kts
14-Jul-18 09:38 43.559252 -116.214934 114 2838ft 19kts
14-Jul-18 09:39 43.558180 -116.209953 20 2838ft 0kts
14-Jul-18 09:40 43.558180 -116.209953 20 2838ft 0kts
14-Jul-18 09:41 43.558181 -116.209953 20 2838ft 0kts
14-Jul-18 09:42 43.559652 -116.212315 297 2838ft 48kts
14-Jul-18 09:43 43.569844 -116.251726 286 3993ft 136kts
14-Jul-18 09:44 43.582055 -116.309483 286 5658ft 174kts
14-Jul-18 09:45 43.595177 -116.374931 286 7601ft 162kts
14-Jul-18 09:46 43.587012 -116.411597 148 9914ft 131kts
14-Jul-18 09:47 43.570898 -116.369835 111 11950ft 137kts
14-Jul-18 09:48 43.552134 -116.309339 110 13705ft 199kts
14-Jul-18 09:49 43.539777 -116.229379 90 15345ft 226kts
14-Jul-18 09:50 43.531362 -116.140614 93 16952ft 245kts
14-Jul-18 09:51 43.525541 -116.044014 90 18570ft 260kts
14-Jul-18 09:52 43.512538 -115.939208 96 19298ft 291kts
14-Jul-18 09:53 43.494719 -115.828444 98 19326ft 295kts
14-Jul-18 09:54 43.475559 -115.718592 99 19471ft 288kts
14-Jul-18 09:55 43.456617 -115.615224 99 21012ft 286kts
14-Jul-18 09:56 43.436945 -115.505416 99 22858ft 294kts
14-Jul-18 09:57 43.417417 -115.398674 100 25180ft 286kts
14-Jul-18 09:58 43.396347 -115.280568 100 25320ft 332kts
14-Jul-18 09:59 43.374267 -115.158438 100 25314ft 327kts
14-Jul-18 10:00 43.351698 -115.036394 101 25307ft 333kts
14-Jul-18 10:01 43.328566 -114.912457 101 25299ft 335kts
14-Jul-18 10:02 43.305189 -114.788452 102 25293ft 336kts
14-Jul-18 10:03 43.281559 -114.664282 102 25291ft 337kts
14-Jul-18 10:04 43.257678 -114.539502 102 25289ft 337kts
14-Jul-18 10:05 43.233621 -114.415017 102 25288ft 338kts
14-Jul-18 10:06 43.209385 -114.290513 102 25289ft 338kts
14-Jul-18 10:07 43.184919 -114.165644 103 25289ft 338kts
14-Jul-18 10:08 43.160323 -114.040834 103 24870ft 338kts
14-Jul-18 10:09 43.136824 -113.924930 103 24042ft 299kts
14-Jul-18 10:10 43.114718 -113.818148 103 23039ft 285kts
14-Jul-18 10:11 43.093558 -113.715196 103 22040ft 278kts
14-Jul-18 10:12 43.080131 -113.612144 88 20977ft 273kts
14-Jul-18 10:13 43.072759 -113.507601 91 19582ft 283kts
14-Jul-18 10:14 43.061055 -113.398364 92 17992ft 292kts
14-Jul-18 10:15 43.051122 -113.291524 93 16393ft 268kts
14-Jul-18 10:16 43.040882 -113.195476 94 14793ft 245kts
14-Jul-18 10:17 43.030947 -113.105520 95 13190ft 232kts
14-Jul-18 10:18 43.021486 -113.020063 95 11594ft 222kts
14-Jul-18 10:19 43.013311 -112.946645 97 10375ft 201kts
14-Jul-18 10:20 43.004829 -112.871386 97 10300ft 200kts
14-Jul-18 10:21 42.996515 -112.796086 97 10301ft 200kts
14-Jul-18 10:22 42.990022 -112.737473 97 10301ft 200kts
14-Jul-18 10:23 42.981540 -112.661506 97 10093ft 206kts
14-Jul-18 10:24 42.972872 -112.585859 97 10052ft 199kts
14-Jul-18 10:25 42.969177 -112.511927 56 10054ft 193kts
14-Jul-18 10:26 43.006857 -112.459480 41 9717ft 200kts
14-Jul-18 10:27 43.045340 -112.406425 45 9034ft 188kts
14-Jul-18 10:28 43.090354 -112.388929 351 8395ft 170kts
14-Jul-18 10:29 43.126587 -112.370522 67 7703ft 144kts
14-Jul-18 10:30 43.113440 -112.324183 152 7028ft 143kts
14-Jul-18 10:31 43.084165 -112.351212 228 6378ft 144kts
14-Jul-18 10:32 43.056622 -112.388133 225 6042ft 127kts
14-Jul-18 10:33 43.031383 -112.423033 225 6057ft 137kts
14-Jul-18 10:34 43.004069 -112.461551 225 6053ft 143kts
14-Jul-18 10:35 42.975653 -112.500200 224 6049ft 144kts
14-Jul-18 10:36 42.948539 -112.536134 229 5313ft 120kts
14-Jul-18 10:37 42.931928 -112.560053 225 4840ft 102kts
14-Jul-18 10:38 42.913318 -112.584957 225 4456ft 50kts
14-Jul-18 10:39 42.909062 -112.586141 169 4456ft 11kts
14-Jul-18 10:40 42.907211 -112.587192 223 4456ft 0kts
14-Jul-18 10:41 42.906713 -112.588214 100 4456ft 0kts
14-Jul-18 10:42 42.906713 -112.588214 100 4456ft 0kts
14-Jul-18 10:43 42.906713 -112.588214 100 4456ft 0kts
14-Jul-18 10:44 42.906713 -112.588214 100 4456ft 0kts
14-Jul-18 10:45 42.906713 -112.588214 100 4456ft 0kts
14-Jul-18 10:46 42.906713 -112.588214 100 4456ft 0kts
14-Jul-18 10:47 42.906713 -112.588214 100 4456ft 0kts
14-Jul-18 10:48 42.906713 -112.588214 100 4456ft 0kts
14-Jul-18 10:49 42.906713 -112.588214 100 4456ft 0kts

Navigation Log

Ident Type
Flight plan parsing failed, navigation log unavailable